Cataratas del Iguazú, Argentina

3:20 PM ART en Octubre 21, 2014 (GMT -0300)
Mayor D Carlos Eduardo Krause | Change Station
CLOSE
Current Station
Aeropuerto
Location: Iguazu,
Altura: 886 ft
Estaciones meteorológicas cercanas

Alt 886 ft 25.74 °S, 54.47 °W | Updated 20 minutes ago

Scattered Clouds
Nubes dispersas
90 ° F
Sensación térmica 90 ° F
N
0
Viento Variable Viento desde Norte

Hoy
Alta -- | Baja -- ° F
--% Posibilidad de precipitaciones
Ayer
Alta -- | Baja -- ° F
Precip. -- pul
5:57 AM 6:47 PM
Creciente menguante, 5% visible
Presión 30.04 pul
Visibilidad 6.2 Millas
Nubes Nubes dispersas 3000 ft
Índice de calor 90 ° F
Punto de rocío 63 ° F
Humedad 40%
Precipitaciones 0.00 pul
Espesor de la nieve No disponible.
UV 7 de una escala de 12
Polen No disponible.
Calidad del aire No disponible.
Flu Activity No disponible.
METAR SARI 211800Z 00000KT 9999 SCT030 32/17 Q1017

More Conditions Fewer Conditions

Presión 30.04 pul
Visibilidad 6.2 Millas
Nubes Nubes dispersas 3000 ft
Índice de calor 90 ° F
Punto de rocío 63 ° F
Humedad 40%
Precipitaciones 0.00 pul
Espesor de la nieve No disponible.
UV 7 de una escala de 12
Polen No disponible.
Calidad del aire No disponible.
Flu Activity No disponible.
METAR SARI 211800Z 00000KT 9999 SCT030 32/17 Q1017

More Conditions Fewer Conditions

10-Day Weather Forecast

Almanac

Astronomía

Oct. 21, 2014 Salida Puesta
Hora real 5:57 AM ART 6:47 PM ART
Crepúsculo civil 5:34 AM ART 7:11 PM ART
Crepúsculo náutico 5:06 AM ART 7:39 PM ART
Crepúsculo astronómico 4:38 AM ART 8:07 PM ART
Luna 4:27 AM ART 4:56 PM ART
Horas de luz 13h 36m
Horas de luz
12h 49m
Tomorrow will be 1m 27s longer.
Creciente menguante, 5% of the Moon is Illuminated
Hoy
Creciente menguante
Oct 23
Nueva
Oct 30
Cuarto creciente
Nov 6
Luna llena
Nov 14
Cuarto menguante

Extremos de hoy

Máximos del país Bajas del país

Community

WunderPhotos

Upload Photos

1,763,738 ¡fotos cargadas!

Nearby

Calidad del aire

Not available.

Grosos de nieve

Not available.

Actividad de terremotos

Ciudad Distance Mag. Tiempo y dato
No hay informes recientes de la actividad sísmica.
Magnitud mínima muestra es 2,5.

Temperaturas de aguas costeras

Lugar Temperatura
Sin partes meteorológicos de las estaciones

Estaciones meteorológicas cercanas